Terminal Aerodrome Forecast
Issued by NWS Charleston, WV

Current Version | Previous Version | Graphics & Text | Print | Product List | Glossary On
Versions: 1 2 3 4 5 6 7 8 9 10 11 12 13 14 15 16 17 18 19 20 21 22 23 24 25 26
000
FTUS41 KRLX 270400 AAB
TAFBKW
TAF AMD
KBKW 270426Z 2704/2724 00000KT 6SM BR SCT120
      TEMPO 2707/2710 2SM BR BKN002
     FM271000 VRB03KT 2SM -SN BR OVC005
     FM271300 30005KT 4SM -SHSN BR OVC008
     FM271700 30012G19KT 5SM -SHSN BR OVC020
     FM272000 30010G16KT 6SM -SHSN BKN020=

USA.gov is the U.S. government's official web portal to all federal, state and local government web resources and services.